Time;durP1;ratioP1;P1;durP2;ratioP2;P2;SDS_P1;SDS_P2;PMS_P1;PMS_P2;Temp;Humidity;BMP_temperature;BMP_pressure;BME280_temperature;BME280_humidity;BME280_pressure;Samples;Min_cycle;Max_cycle;Signal;HPM_P1;HPM_P2
2021/03/31 00:00:41;;;;;;;9.30;6.30;;;7.00;60.10;;;;;;6165809;23;20056;31
2021/03/31 00:03:18;;;;;;;9.70;6.82;;;6.80;59.90;;;;;;5113753;28;20139;-70
2021/03/31 00:05:50;;;;;;;8.50;7.43;;;6.80;60.30;;;;;;5104268;28;20135;-70
2021/03/31 00:08:21;;;;;;;9.82;6.75;;;6.70;60.80;;;;;;5105154;28;20102;-71
2021/03/31 00:10:53;;;;;;;9.65;6.90;;;6.60;60.60;;;;;;5109999;28;20051;-70
2021/03/31 00:13:25;;;;;;;7.95;7.25;;;6.60;61.50;;;;;;5124756;28;20046;-69
2021/03/31 00:15:57;;;;;;;9.75;6.70;;;6.60;60.80;;;;;;5125421;28;20747;-69
2021/03/31 00:18:29;;;;;;;7.70;6.90;;;6.60;61.60;;;;;;5127194;28;20046;-70
2021/03/31 00:21:00;;;;;;;8.30;6.40;;;6.60;61.10;;;;;;5117771;28;20110;-70
2021/03/31 00:23:32;;;;;;;8.93;6.93;;;6.60;60.60;;;;;;5126358;28;20118;-70
2021/03/31 00:26:03;;;;;;;7.63;6.30;;;6.60;60.90;;;;;;5124695;28;20043;-69
2021/03/31 00:28:35;;;;;;;12.90;6.60;;;6.60;61.60;;;;;;5118576;28;20051;-69
2021/03/31 00:31:06;;;;;;;9.50;6.70;;;6.50;60.80;;;;;;5119044;28;20043;-69
2021/03/31 00:33:38;;;;;;;9.05;7.13;;;6.60;60.30;;;;;;5124618;28;20047;-69
2021/03/31 00:36:09;;;;;;;7.95;7.15;;;6.50;60.80;;;;;;5123556;28;20047;-69
2021/03/31 00:38:41;;;;;;;11.25;7.13;;;6.50;60.90;;;;;;5156078;28;20059;-69
2021/03/31 00:41:13;;;;;;;9.10;7.35;;;6.40;60.70;;;;;;5123887;28;20051;-70
2021/03/31 00:43:45;;;;;;;9.70;6.50;;;6.40;60.50;;;;;;5126159;28;20047;-69
2021/03/31 00:46:16;;;;;;;7.90;6.40;;;6.40;60.80;;;;;;5123131;28;20054;-70
2021/03/31 00:48:48;;;;;;;8.07;7.00;;;6.30;61.50;;;;;;5148912;28;20137;-69
2021/03/31 00:51:19;;;;;;;8.98;6.70;;;6.20;61.80;;;;;;5120272;28;20043;-70
2021/03/31 00:53:51;;;;;;;8.35;6.70;;;6.10;62.60;;;;;;5125925;28;20051;-70
2021/03/31 00:56:22;;;;;;;9.02;6.97;;;6.20;61.10;;;;;;5123056;28;20093;-69
2021/03/31 00:58:54;;;;;;;8.95;7.07;;;6.10;61.90;;;;;;5123050;28;20051;-69
2021/03/31 01:01:25;;;;;;;8.02;7.22;;;6.10;62.00;;;;;;5125476;28;20086;-70
2021/03/31 01:03:57;;;;;;;8.18;7.32;;;6.20;62.20;;;;;;5134438;28;20518;-69
2021/03/31 01:06:28;;;;;;;8.45;7.53;;;6.20;61.20;;;;;;5131962;28;20055;-70
2021/03/31 01:09:00;;;;;;;11.55;8.05;;;6.20;61.20;;;;;;5128781;28;20098;-70
2021/03/31 01:11:45;;;;;;;8.25;7.32;;;6.20;61.10;;;;;;5128387;28;20082;-70
2021/03/31 01:14:34;;;;;;;9.27;7.20;;;6.10;61.30;;;;;;5134064;28;20724;-71
2021/03/31 01:17:13;;;;;;;13.02;8.23;;;6.00;61.20;;;;;;5131459;28;20460;-69
2021/03/31 01:20:17;;;;;;;9.10;6.75;;;6.00;61.90;;;;;;5131815;28;20527;-70
2021/03/31 01:23:12;;;;;;;9.18;7.63;;;5.80;62.30;;;;;;5110740;28;20144;-70
2021/03/31 01:25:57;;;;;;;10.43;7.70;;;5.70;62.30;;;;;;5129777;28;20039;-70
2021/03/31 01:28:40;;;;;;;9.25;7.63;;;5.70;62.00;;;;;;5129122;28;20057;-69
2021/03/31 01:32:01;;;;;;;9.48;7.22;;;5.70;62.30;;;;;;5128616;28;20056;-70
2021/03/31 01:34:44;;;;;;;9.05;7.15;;;5.60;62.80;;;;;;5099851;28;20059;-69
2021/03/31 01:37:28;;;;;;;7.82;6.47;;;5.60;62.80;;;;;;5133841;28;20484;-69
2021/03/31 01:40:03;;;;;;;10.82;6.90;;;5.60;63.20;;;;;;5129952;28;20469;-69
2021/03/31 01:42:39;;;;;;;9.38;7.10;;;5.50;62.70;;;;;;5131207;28;20047;-69
2021/03/31 01:45:13;;;;;;;7.53;6.72;;;5.60;62.60;;;;;;5130994;28;20050;-69
2021/03/31 01:47:47;;;;;;;7.70;6.90;;;5.60;62.60;;;;;;5132926;28;20062;-69
2021/03/31 01:50:19;;;;;;;7.97;7.07;;;5.50;62.60;;;;;;5131353;28;20137;-71
2021/03/31 01:52:51;;;;;;;9.25;7.00;;;5.50;63.10;;;;;;5130328;28;20093;-71
2021/03/31 01:55:23;;;;;;;7.93;6.82;;;5.40;62.50;;;;;;5130643;28;20061;-71
2021/03/31 01:57:56;;;;;;;8.90;7.05;;;5.50;62.60;;;;;;5129794;28;20365;-70
2021/03/31 02:00:31;;;;;;;9.20;6.78;;;5.50;62.80;;;;;;5128458;28;20047;-70
2021/03/31 02:03:03;;;;;;;7.15;6.43;;;5.50;62.80;;;;;;5129375;28;20463;-70
2021/03/31 02:05:36;;;;;;;7.60;6.55;;;5.40;62.70;;;;;;5126736;28;20684;-70
2021/03/31 02:08:09;;;;;;;11.13;6.80;;;5.40;62.70;;;;;;5130029;28;20126;-70
2021/03/31 02:10:43;;;;;;;7.53;6.70;;;5.40;62.60;;;;;;5133206;28;20057;-70
2021/03/31 02:13:15;;;;;;;7.80;6.68;;;5.50;62.10;;;;;;5162205;28;20047;-69
2021/03/31 02:15:48;;;;;;;7.88;7.03;;;5.50;62.30;;;;;;5126387;28;20047;-69
2021/03/31 02:18:20;;;;;;;7.93;7.13;;;5.50;62.00;;;;;;5128530;28;20054;-69
2021/03/31 02:20:55;;;;;;;8.57;7.20;;;5.50;62.00;;;;;;5124136;28;20043;-70
2021/03/31 02:23:28;;;;;;;8.70;6.82;;;5.40;62.40;;;;;;5125753;28;20070;-69
2021/03/31 02:25:59;;;;;;;11.88;7.22;;;5.40;62.40;;;;;;5124296;28;20494;-70
2021/03/31 02:28:31;;;;;;;12.75;7.75;;;5.40;62.90;;;;;;5125909;28;20078;-70
2021/03/31 02:31:05;;;;;;;10.77;7.53;;;5.30;63.00;;;;;;5158358;28;20054;-70
2021/03/31 02:33:37;;;;;;;10.20;7.70;;;5.30;62.90;;;;;;5128102;28;20043;-70
2021/03/31 02:36:14;;;;;;;10.45;7.07;;;5.20;63.40;;;;;;5110902;28;20106;-69
2021/03/31 02:38:47;;;;;;;7.47;6.68;;;5.20;62.90;;;;;;5124622;28;20057;-70
2021/03/31 02:41:20;;;;;;;8.80;7.20;;;5.20;63.10;;;;;;5123176;28;20054;-70
2021/03/31 02:43:57;;;;;;;8.35;6.97;;;5.10;64.40;;;;;;5124748;28;20051;-69
2021/03/31 02:46:30;;;;;;;13.23;7.40;;;5.10;63.60;;;;;;5127510;28;20050;-69
2021/03/31 02:49:02;;;;;;;10.63;7.35;;;5.10;63.30;;;;;;5125957;28;20412;-70
2021/03/31 02:51:35;;;;;;;8.13;7.30;;;5.00;63.10;;;;;;5126436;28;20137;-70
2021/03/31 02:54:09;;;;;;;7.38;6.63;;;5.10;62.90;;;;;;5125408;28;20043;-70
2021/03/31 02:56:42;;;;;;;8.77;6.95;;;5.00;63.70;;;;;;5125568;28;20638;-69
2021/03/31 02:59:16;;;;;;;8.70;6.93;;;4.90;64.70;;;;;;5126272;28;20802;-70
2021/03/31 03:01:47;;;;;;;8.95;7.13;;;4.90;64.20;;;;;;5125490;28;20090;-69
2021/03/31 03:04:20;;;;;;;8.07;7.10;;;4.80;63.80;;;;;;5127578;28;20145;-69
2021/03/31 03:06:51;;;;;;;9.85;6.93;;;4.80;64.70;;;;;;5126193;28;20047;-70
2021/03/31 03:09:23;;;;;;;10.23;6.85;;;4.80;64.40;;;;;;5125937;28;20055;-69
2021/03/31 03:11:56;;;;;;;7.70;6.90;;;4.90;63.80;;;;;;5126580;28;20393;-69
2021/03/31 03:14:28;;;;;;;11.75;6.75;;;5.00;63.20;;;;;;5121148;28;20051;-68
2021/03/31 03:17:00;;;;;;;9.15;6.93;;;4.90;62.90;;;;;;5121921;28;20059;-69
2021/03/31 03:19:32;;;;;;;7.28;6.57;;;4.90;62.90;;;;;;5124928;28;20050;-70
2021/03/31 03:22:05;;;;;;;8.55;7.32;;;4.80;64.00;;;;;;5126967;28;20695;-69
2021/03/31 03:24:37;;;;;;;10.32;7.25;;;4.90;63.10;;;;;;5123860;28;20047;-68
2021/03/31 03:27:13;;;;;;;9.48;7.20;;;4.90;63.30;;;;;;5154096;28;20059;-70
2021/03/31 03:29:50;;;;;;;9.48;6.80;;;5.00;62.80;;;;;;5125249;28;20496;-68
2021/03/31 03:32:22;;;;;;;10.52;6.90;;;5.00;62.30;;;;;;5133965;28;20043;-69
2021/03/31 03:34:55;;;;;;;9.73;7.38;;;5.00;63.40;;;;;;5125113;28;20974;-69
2021/03/31 03:37:27;;;;;;;8.13;7.32;;;5.00;63.40;;;;;;5127485;28;20046;-69
2021/03/31 03:40:01;;;;;;;8.13;6.93;;;5.00;63.20;;;;;;5141835;28;20050;-70
2021/03/31 03:42:33;;;;;;;9.50;8.13;;;5.00;63.60;;;;;;5121233;28;20043;-70
2021/03/31 03:45:06;;;;;;;7.60;6.90;;;5.00;64.60;;;;;;5125350;28;20050;-70
2021/03/31 03:47:39;;;;;;;9.68;7.38;;;4.90;63.80;;;;;;5129061;28;20043;-69
2021/03/31 03:50:13;;;;;;;9.32;7.38;;;4.90;63.40;;;;;;5124978;28;20039;-68
2021/03/31 03:52:48;;;;;;;8.02;7.20;;;5.00;63.00;;;;;;5125819;28;20047;-68
2021/03/31 03:55:22;;;;;;;8.48;6.82;;;5.00;63.00;;;;;;5119987;28;20445;-69
2021/03/31 03:57:54;;;;;;;8.90;6.43;;;5.00;62.90;;;;;;5126699;28;20039;-68
2021/03/31 04:00:25;;;;;;;8.30;7.13;;;5.10;63.30;;;;;;5124676;28;20042;-68
2021/03/31 04:02:57;;;;;;;8.70;6.70;;;5.10;62.60;;;;;;5126842;28;20834;-69
2021/03/31 04:05:28;;;;;;;7.93;7.13;;;5.00;62.10;;;;;;5124782;28;20098;-69
2021/03/31 04:08:00;;;;;;;8.27;7.40;;;4.80;62.40;;;;;;5126430;28;20055;-68
2021/03/31 04:10:34;;;;;;;11.30;7.75;;;4.70;63.20;;;;;;5122575;28;20059;-68
2021/03/31 04:13:06;;;;;;;8.45;7.50;;;4.60;63.00;;;;;;5123528;28;20579;-69
2021/03/31 04:15:43;;;;;;;10.27;7.70;;;4.60;63.10;;;;;;5127586;28;20058;-69
2021/03/31 04:18:16;;;;;;;8.27;7.47;;;4.70;62.40;;;;;;5125047;28;20039;-69
2021/03/31 04:20:49;;;;;;;9.43;7.32;;;4.60;64.40;;;;;;5127526;28;20547;-69
2021/03/31 04:23:21;;;;;;;8.32;7.03;;;4.50;65.00;;;;;;5125434;28;20540;-69
2021/03/31 04:25:55;;;;;;;7.85;6.82;;;4.60;64.80;;;;;;5124474;28;20051;-68
2021/03/31 04:28:28;;;;;;;8.88;7.30;;;4.60;64.50;;;;;;5125661;28;20515;-69
2021/03/31 04:31:00;;;;;;;8.70;7.80;;;4.70;63.10;;;;;;5126824;28;20055;-69
2021/03/31 04:33:32;;;;;;;9.20;7.30;;;4.70;62.30;;;;;;5127725;28;20047;-70
2021/03/31 04:36:04;;;;;;;7.57;6.80;;;4.80;62.20;;;;;;5124468;28;20106;-69
2021/03/31 04:38:35;;;;;;;9.20;6.82;;;4.70;64.20;;;;;;5124682;28;20121;-70
2021/03/31 04:41:07;;;;;;;13.27;7.20;;;4.70;64.70;;;;;;5152718;28;20051;-70
2021/03/31 04:43:38;;;;;;;7.50;6.80;;;4.70;64.70;;;;;;5124586;28;20050;-69
2021/03/31 04:46:10;;;;;;;9.02;7.50;;;4.80;64.30;;;;;;5123623;28;20051;-70
2021/03/31 04:48:42;;;;;;;9.02;7.32;;;4.80;63.00;;;;;;5126820;28;20133;-68
2021/03/31 04:51:13;;;;;;;8.98;7.30;;;4.80;62.70;;;;;;5124531;28;20756;-69
2021/03/31 04:53:45;;;;;;;8.80;7.90;;;4.70;62.30;;;;;;5123823;28;20130;-69
2021/03/31 04:56:16;;;;;;;9.82;7.70;;;4.70;62.80;;;;;;5123934;28;20416;-69
2021/03/31 04:58:51;;;;;;;10.60;8.20;;;4.60;62.00;;;;;;5122290;28;20051;-69
2021/03/31 05:01:22;;;;;;;11.75;7.75;;;4.50;62.70;;;;;;5123876;28;20480;-69
2021/03/31 05:03:54;;;;;;;9.13;7.72;;;4.30;62.80;;;;;;5120464;28;20059;-69
2021/03/31 05:06:25;;;;;;;8.52;7.20;;;4.40;63.90;;;;;;5127143;28;20581;-69
2021/03/31 05:08:57;;;;;;;8.65;7.60;;;4.40;62.80;;;;;;5125987;28;20509;-69
2021/03/31 05:11:29;;;;;;;10.93;8.30;;;4.30;63.60;;;;;;5122035;28;20134;-68
2021/03/31 05:14:00;;;;;;;9.98;7.70;;;4.30;63.60;;;;;;5125426;28;20078;-68
2021/03/31 05:16:32;;;;;;;10.65;7.18;;;4.30;63.80;;;;;;5130301;28;20043;-68
2021/03/31 05:19:03;;;;;;;8.30;7.30;;;4.30;63.80;;;;;;5125126;28;20054;-68
2021/03/31 05:21:39;;;;;;;10.05;7.80;;;4.20;63.90;;;;;;5124569;28;20127;-69
2021/03/31 05:24:11;;;;;;;8.93;8.02;;;4.30;64.60;;;;;;5125236;28;20401;-68
2021/03/31 05:26:42;;;;;;;8.70;7.80;;;4.10;64.10;;;;;;5123977;28;20086;-68
2021/03/31 05:29:14;;;;;;;9.40;7.63;;;4.00;64.80;;;;;;5121615;28;20039;-68
2021/03/31 05:31:45;;;;;;;9.52;7.93;;;4.00;63.90;;;;;;5126154;28;20650;-68
2021/03/31 05:34:17;;;;;;;10.55;7.50;;;4.10;63.40;;;;;;5121337;28;20047;-68
2021/03/31 05:36:48;;;;;;;10.98;7.78;;;4.10;64.30;;;;;;5153434;28;20053;-68
2021/03/31 05:39:20;;;;;;;8.90;7.47;;;4.10;64.60;;;;;;5125504;28;20050;-69
2021/03/31 05:41:51;;;;;;;8.07;7.10;;;4.10;64.50;;;;;;5123171;28;20054;-68
2021/03/31 05:44:23;;;;;;;9.35;6.78;;;4.20;64.60;;;;;;5124745;28;20054;-70
2021/03/31 05:46:55;;;;;;;9.00;7.22;;;4.40;64.60;;;;;;5122887;28;20063;-68
2021/03/31 05:49:26;;;;;;;10.95;6.63;;;4.50;65.10;;;;;;5141437;28;20051;-67
2021/03/31 05:51:58;;;;;;;11.73;8.13;;;4.70;63.80;;;;;;5123056;28;20175;-67
2021/03/31 05:54:29;;;;;;;12.93;8.20;;;4.90;63.30;;;;;;5126034;28;20508;-67
2021/03/31 05:57:01;;;;;;;10.15;7.85;;;5.10;62.40;;;;;;5125154;28;20114;-67
2021/03/31 05:59:33;;;;;;;8.43;6.93;;;5.20;61.90;;;;;;5124543;28;20047;-68
2021/03/31 06:02:05;;;;;;;8.70;7.38;;;5.30;61.40;;;;;;5122695;28;20086;-68
2021/03/31 06:04:38;;;;;;;9.32;7.65;;;5.50;61.30;;;;;;5124421;28;20051;-67
2021/03/31 06:07:09;;;;;;;11.20;7.63;;;5.60;61.80;;;;;;5123980;28;20656;-67
2021/03/31 06:10:10;;;;;;;9.35;7.47;;;5.70;62.50;;;;;;5124297;28;20047;-68
2021/03/31 06:12:52;;;;;;;9.02;7.65;;;5.90;63.20;;;;;;5127460;28;20050;-67
2021/03/31 06:15:32;;;;;;;10.52;7.60;;;6.00;64.00;;;;;;5123950;28;20062;-68
2021/03/31 06:18:13;;;;;;;8.48;7.68;;;6.10;62.70;;;;;;5157894;28;20508;-69
2021/03/31 06:20:57;;;;;;;10.70;7.32;;;6.40;62.80;;;;;;5129111;28;20043;-69
2021/03/31 06:28:36;;;;;;;11.43;8.05;;;6.70;61.50;;;;;;5128099;28;20049;-68
2021/03/31 06:31:39;;;;;;;11.25;7.70;;;6.80;60.60;;;;;;5128381;28;20051;-68
2021/03/31 06:34:15;;;;;;;12.43;7.70;;;6.90;62.20;;;;;;5121561;28;20066;-67
2021/03/31 06:36:52;;;;;;;11.88;8.48;;;7.10;61.50;;;;;;5125336;28;20066;-68
2021/03/31 06:39:25;;;;;;;8.48;7.68;;;7.20;60.50;;;;;;5127344;28;20153;-68
2021/03/31 06:42:14;;;;;;;9.73;7.32;;;7.30;59.30;;;;;;5122742;28;20055;-68
2021/03/31 06:45:06;;;;;;;11.98;7.85;;;7.50;59.10;;;;;;5139071;28;20134;-68
2021/03/31 06:50:16;;;;;;;10.40;7.72;;;7.70;58.90;;;;;;5126166;28;20074;-68
2021/03/31 06:52:55;;;;;;;11.73;8.27;;;7.90;58.30;;;;;;5127950;28;20313;-68
2021/03/31 06:55:29;;;;;;;10.20;7.75;;;8.10;57.20;;;;;;5123226;28;20069;-68
2021/03/31 06:58:10;;;;;;;12.80;8.52;;;8.30;56.50;;;;;;5127697;28;20034;-68
2021/03/31 07:00:41;;;;;;;9.82;8.05;;;8.50;55.80;;;;;;5124149;28;20106;-68
2021/03/31 07:03:14;;;;;;;12.13;7.57;;;8.60;57.40;;;;;;5124197;28;20098;-68
2021/03/31 07:05:46;;;;;;;10.02;7.85;;;8.80;57.50;;;;;;5126652;28;20056;-69
2021/03/31 07:08:19;;;;;;;8.82;7.30;;;9.00;57.20;;;;;;5123474;28;20050;-69
2021/03/31 07:10:55;;;;;;;9.93;7.38;;;9.20;53.60;;;;;;5125855;28;20058;-68
2021/03/31 07:13:32;;;;;;;9.13;8.23;;;9.40;53.80;;;;;;5127609;28;20047;-68
2021/03/31 07:16:05;;;;;;;10.82;8.05;;;9.60;52.60;;;;;;5127746;28;20051;-68
2021/03/31 07:18:38;;;;;;;9.60;8.13;;;9.80;52.90;;;;;;5126843;28;20051;-68
2021/03/31 07:21:10;;;;;;;9.02;7.68;;;10.00;52.50;;;;;;5124109;28;20487;-68
2021/03/31 07:23:42;;;;;;;11.43;8.27;;;10.20;52.70;;;;;;5136048;28;20121;-68
2021/03/31 07:26:15;;;;;;;10.52;7.82;;;10.30;51.70;;;;;;5123395;28;20058;-68
2021/03/31 07:28:50;;;;;;;12.63;8.40;;;10.50;50.30;;;;;;5124217;28;20508;-69
2021/03/31 07:31:28;;;;;;;9.43;8.48;;;10.60;50.70;;;;;;5120431;28;20459;-69
2021/03/31 07:34:16;;;;;;;15.50;8.40;;;10.80;50.70;;;;;;5125978;28;20097;-68
2021/03/31 07:36:49;;;;;;;10.65;8.10;;;10.90;51.20;;;;;;5126133;28;20074;-68
2021/03/31 07:39:27;;;;;;;10.57;8.32;;;11.00;50.90;;;;;;5126616;28;20463;-69
2021/03/31 07:42:01;;;;;;;14.30;8.93;;;11.30;51.10;;;;;;5126346;28;20050;-69
2021/03/31 07:44:34;;;;;;;14.93;8.73;;;11.40;52.00;;;;;;5126540;28;20053;-71
2021/03/31 07:47:06;;;;;;;10.32;8.50;;;11.60;52.00;;;;;;5128365;28;20043;-70
2021/03/31 07:49:38;;;;;;;13.32;8.70;;;11.80;51.90;;;;;;5127800;28;20436;-69
2021/03/31 07:52:10;;;;;;;11.05;7.95;;;11.90;50.90;;;;;;5123594;28;20039;-69
2021/03/31 07:54:41;;;;;;;10.93;8.00;;;12.10;48.90;;;;;;5124178;28;20058;-69
2021/03/31 07:57:28;;;;;;;9.75;8.27;;;12.20;46.00;;;;;;5123595;28;20047;-70
2021/03/31 08:00:00;;;;;;;11.85;8.30;;;12.40;44.10;;;;;;5130090;28;20134;-69
2021/03/31 08:02:31;;;;;;;15.02;9.00;;;12.50;43.40;;;;;;5126007;28;20039;-69
2021/03/31 08:05:09;;;;;;;10.60;8.15;;;12.60;43.00;;;;;;5154891;28;20079;-69
2021/03/31 08:07:43;;;;;;;12.15;9.02;;;12.70;41.80;;;;;;5121910;28;20057;-69
2021/03/31 08:10:36;;;;;;;9.20;8.32;;;12.80;44.00;;;;;;5122849;28;20047;-70
2021/03/31 08:13:29;;;;;;;13.82;9.32;;;12.90;45.30;;;;;;5127460;28;20043;-70
2021/03/31 08:16:22;;;;;;;10.52;9.27;;;13.10;46.10;;;;;;5154536;28;20050;-70
2021/03/31 08:19:00;;;;;;;13.82;9.50;;;13.30;46.30;;;;;;5126314;28;20035;-70
2021/03/31 08:21:33;;;;;;;13.82;9.13;;;13.60;45.30;;;;;;5124755;28;20590;-70
2021/03/31 08:24:05;;;;;;;9.98;8.98;;;13.70;44.60;;;;;;5127182;28;20046;-71
2021/03/31 08:26:42;;;;;;;10.00;8.60;;;13.90;42.00;;;;;;5125009;28;20054;-70
2021/03/31 08:29:17;;;;;;;9.57;8.65;;;14.00;42.80;;;;;;5123121;28;20829;-69
2021/03/31 08:32:03;;;;;;;12.93;9.32;;;14.20;41.70;;;;;;5124061;28;20051;-70
2021/03/31 08:34:35;;;;;;;14.73;9.38;;;14.30;41.50;;;;;;5123350;28;20848;-70
2021/03/31 08:37:17;;;;;;;10.25;8.93;;;14.50;41.40;;;;;;5123551;28;20042;-70
2021/03/31 08:39:49;;;;;;;10.15;9.05;;;14.70;39.50;;;;;;5121192;28;20043;-71
2021/03/31 08:42:20;;;;;;;10.80;9.20;;;14.80;38.30;;;;;;5121831;28;20051;-70
2021/03/31 08:44:57;;;;;;;10.00;9.10;;;14.90;38.90;;;;;;5127683;28;20153;-70
2021/03/31 08:47:32;;;;;;;10.35;9.45;;;15.10;36.70;;;;;;5125403;28;20130;-69
2021/03/31 08:50:07;;;;;;;9.80;8.90;;;15.10;33.30;;;;;;5124785;28;20055;-71
2021/03/31 08:52:39;;;;;;;14.20;9.52;;;15.30;33.80;;;;;;5122760;28;20657;-69
2021/03/31 08:55:12;;;;;;;10.32;9.25;;;15.30;32.90;;;;;;5122071;28;20055;-69
2021/03/31 08:57:47;;;;;;;11.68;9.48;;;15.50;31.70;;;;;;5122771;28;20057;-70
2021/03/31 09:00:19;;;;;;;12.65;9.40;;;15.70;32.40;;;;;;5122941;28;20110;-70
2021/03/31 09:03:02;;;;;;;10.45;9.45;;;15.70;30.70;;;;;;5123612;28;20070;-70
2021/03/31 09:05:33;;;;;;;10.10;9.13;;;15.90;31.00;;;;;;5120428;28;20063;-71
2021/03/31 09:08:07;;;;;;;10.75;9.60;;;16.00;29.90;;;;;;5126426;28;20043;-70
2021/03/31 09:11:04;;;;;;;10.25;9.30;;;16.10;30.90;;;;;;5150434;28;20061;-71
2021/03/31 09:13:36;;;;;;;10.38;9.18;;;16.30;31.10;;;;;;5156457;28;20126;-70
2021/03/31 09:16:09;;;;;;;10.57;9.25;;;16.50;30.20;;;;;;5155262;28;20612;-70
2021/03/31 09:18:42;;;;;;;9.90;8.90;;;16.70;30.00;;;;;;5121962;28;20796;-69
2021/03/31 09:21:14;;;;;;;10.10;9.10;;;16.80;28.40;;;;;;5123887;28;20051;-71
2021/03/31 09:23:46;;;;;;;10.38;9.30;;;16.80;27.50;;;;;;5126883;28;20039;-70
2021/03/31 09:26:21;;;;;;;13.77;9.40;;;17.00;29.40;;;;;;5125181;28;20125;-71
2021/03/31 09:28:53;;;;;;;9.98;8.90;;;17.10;27.60;;;;;;5126022;28;20070;-71
2021/03/31 09:31:28;;;;;;;10.32;9.23;;;17.20;26.70;;;;;;5126600;28;20047;-70
2021/03/31 09:34:01;;;;;;;12.07;9.50;;;17.30;26.80;;;;;;5125519;28;20105;-71
2021/03/31 09:36:33;;;;;;;10.68;9.68;;;17.40;26.90;;;;;;5127463;28;20053;-69
2021/03/31 09:39:11;;;;;;;11.38;9.57;;;17.60;26.70;;;;;;5129654;28;20046;-70
2021/03/31 09:41:48;;;;;;;10.30;9.30;;;17.70;27.40;;;;;;5129381;28;20051;-70
2021/03/31 09:44:20;;;;;;;14.90;9.75;;;17.80;27.60;;;;;;5127473;28;20054;-70
2021/03/31 09:46:51;;;;;;;11.65;10.25;;;17.90;27.20;;;;;;5129008;28;20413;-70
2021/03/31 09:49:23;;;;;;;12.15;10.27;;;18.00;27.50;;;;;;5126936;28;20053;-71
2021/03/31 09:51:54;;;;;;;11.80;10.00;;;18.10;27.00;;;;;;5128419;28;20043;-69
2021/03/31 09:54:27;;;;;;;11.32;10.23;;;18.30;27.50;;;;;;5125957;28;20925;-69
2021/03/31 09:56:59;;;;;;;14.68;10.98;;;18.30;26.20;;;;;;5126329;28;20059;-70
2021/03/31 09:59:31;;;;;;;11.77;10.65;;;18.40;26.80;;;;;;5129506;28;20046;-70
2021/03/31 10:02:03;;;;;;;11.98;10.70;;;18.40;27.20;;;;;;5127775;28;20043;-71
2021/03/31 10:04:40;;;;;;;12.32;10.65;;;18.50;27.40;;;;;;5127185;28;20122;-70
2021/03/31 10:07:19;;;;;;;13.95;12.43;;;18.70;27.40;;;;;;5129441;28;20074;-70
2021/03/31 10:10:08;;;;;;;12.95;11.75;;;18.80;27.10;;;;;;5124788;28;20047;-69
2021/03/31 10:12:40;;;;;;;12.38;11.07;;;18.80;28.20;;;;;;5127829;28;20097;-70
2021/03/31 10:15:13;;;;;;;12.23;11.10;;;19.00;28.40;;;;;;5125950;28;20062;-71
2021/03/31 10:17:45;;;;;;;12.57;11.20;;;19.00;27.80;;;;;;5141812;28;20039;-70
2021/03/31 10:20:18;;;;;;;12.30;11.07;;;19.10;27.90;;;;;;5128039;28;20140;-70
2021/03/31 10:22:53;;;;;;;12.30;11.15;;;19.20;28.10;;;;;;5143231;28;20058;-71
2021/03/31 10:25:43;;;;;;;15.70;11.35;;;19.30;28.00;;;;;;5125739;28;20040;-70
2021/03/31 10:28:39;;;;;;;19.40;17.05;;;19.30;28.20;;;;;;5124146;28;20409;-69
2021/03/31 10:31:44;;;;;;;15.13;13.63;;;19.40;27.80;;;;;;5126148;28;20046;-69
2021/03/31 10:34:20;;;;;;;12.43;11.18;;;19.60;27.40;;;;;;5128187;28;20043;-69
2021/03/31 10:51:30;;;;;;;12.20;11.00;;;20.10;27.20;;;;;;5126063;28;20847;-69
2021/03/31 10:56:36;;;;;;;13.45;11.90;;;20.30;27.10;;;;;;5155186;28;20073;-69
2021/03/31 10:59:07;;;;;;;13.75;12.38;;;20.40;27.20;;;;;;5127304;28;20070;-69
2021/03/31 11:01:39;;;;;;;13.55;11.55;;;20.50;26.60;;;;;;5128012;28;20039;-70
2021/03/31 11:04:10;;;;;;;14.18;11.70;;;20.50;26.20;;;;;;5140813;28;20053;-70
2021/03/31 11:06:42;;;;;;;13.73;12.40;;;20.50;26.50;;;;;;5127339;28;20103;-70
2021/03/31 11:09:13;;;;;;;13.00;11.68;;;20.50;26.20;;;;;;5128289;28;20503;-70
2021/03/31 11:11:45;;;;;;;13.80;12.50;;;20.60;26.00;;;;;;5126107;28;20470;-69
2021/03/31 11:14:18;;;;;;;13.55;12.32;;;20.60;25.60;;;;;;5128865;28;20066;-70
2021/03/31 11:17:04;;;;;;;13.75;12.27;;;20.70;25.60;;;;;;5133270;28;20047;-69
2021/03/31 11:20:15;;;;;;;13.05;11.75;;;20.80;25.30;;;;;;5139209;28;20107;-70
2021/03/31 11:28:12;;;;;;;13.60;12.25;;;21.10;25.50;;;;;;5126718;28;20508;-70
2021/03/31 11:30:50;;;;;;;13.93;12.50;;;21.30;24.80;;;;;;5125751;28;20063;-70
2021/03/31 11:33:25;;;;;;;13.63;12.40;;;21.30;24.10;;;;;;5126631;28;20034;-70
2021/03/31 11:35:56;;;;;;;14.02;12.63;;;21.40;25.20;;;;;;5123770;28;20043;-71
2021/03/31 11:38:28;;;;;;;14.38;12.63;;;21.50;24.60;;;;;;5153398;28;20509;-70
2021/03/31 11:41:00;;;;;;;12.70;11.65;;;21.60;24.70;;;;;;5123484;28;20043;-71
2021/03/31 11:43:31;;;;;;;13.88;12.68;;;21.70;24.20;;;;;;5125819;28;20109;-70
2021/03/31 11:46:03;;;;;;;14.07;11.82;;;21.80;24.30;;;;;;5123125;28;20054;-70
2021/03/31 11:48:34;;;;;;;13.27;12.07;;;21.90;24.80;;;;;;5127386;28;20054;-69
2021/03/31 11:51:06;;;;;;;14.85;12.82;;;22.00;24.40;;;;;;5122914;28;20532;-70
2021/03/31 11:53:38;;;;;;;13.50;12.25;;;22.10;25.30;;;;;;5123853;28;20531;-70
2021/03/31 11:56:09;;;;;;;14.43;12.82;;;22.30;24.50;;;;;;5126490;28;20130;-70
2021/03/31 11:58:41;;;;;;;14.05;12.60;;;22.30;23.70;;;;;;5126981;28;20509;-71
2021/03/31 12:01:12;;;;;;;14.77;12.63;;;22.30;24.40;;;;;;5122606;28;20051;-70
2021/03/31 12:03:43;;;;;;;14.45;12.98;;;22.40;24.60;;;;;;5125571;28;20050;-69
2021/03/31 12:06:15;;;;;;;14.38;12.80;;;22.50;24.90;;;;;;5125621;28;20046;-71
2021/03/31 12:08:49;;;;;;;14.30;13.00;;;22.60;24.00;;;;;;5123639;28;21314;-70
2021/03/31 12:11:20;;;;;;;15.30;13.10;;;22.50;24.20;;;;;;5123960;28;20129;-71
2021/03/31 12:13:52;;;;;;;18.17;13.70;;;22.60;24.40;;;;;;5123507;28;20039;-70
2021/03/31 12:16:23;;;;;;;15.00;13.60;;;22.70;23.80;;;;;;5126522;28;20051;-71
2021/03/31 12:18:55;;;;;;;15.48;13.00;;;22.70;24.10;;;;;;5128266;28;20082;-70
2021/03/31 12:21:26;;;;;;;15.02;13.63;;;22.70;24.70;;;;;;5125237;28;20054;-70
2021/03/31 12:23:58;;;;;;;15.23;13.70;;;22.80;24.30;;;;;;5124986;28;20046;-70
2021/03/31 12:26:29;;;;;;;16.40;14.88;;;22.80;25.00;;;;;;5127079;28;20067;-70
2021/03/31 12:29:00;;;;;;;15.52;14.23;;;22.90;25.00;;;;;;5126606;28;20043;-70
2021/03/31 12:31:32;;;;;;;15.57;13.98;;;22.90;25.00;;;;;;5123371;28;20043;-70
2021/03/31 12:34:03;;;;;;;15.65;14.32;;;23.10;24.90;;;;;;5126766;28;20900;-70
2021/03/31 12:36:35;;;;;;;15.82;14.35;;;23.10;25.20;;;;;;5122570;28;20048;-69
2021/03/31 12:39:07;;;;;;;15.07;13.68;;;23.10;25.90;;;;;;5124774;28;20049;-71
2021/03/31 12:41:38;;;;;;;15.73;13.75;;;23.20;25.70;;;;;;5124472;28;20055;-70
2021/03/31 12:44:10;;;;;;;15.50;14.10;;;23.20;25.10;;;;;;5124480;28;20394;-70
2021/03/31 12:46:42;;;;;;;17.00;14.63;;;23.30;25.00;;;;;;5123648;28;20051;-70
2021/03/31 12:49:13;;;;;;;15.10;13.80;;;23.30;25.50;;;;;;5128142;28;20346;-70
2021/03/31 12:51:48;;;;;;;15.57;14.02;;;23.30;25.20;;;;;;5125934;28;20580;-70
2021/03/31 12:54:27;;;;;;;15.52;13.93;;;23.20;25.30;;;;;;5122880;28;20551;-70
2021/03/31 12:56:59;;;;;;;16.08;14.50;;;23.30;25.80;;;;;;5125481;28;20066;-70
2021/03/31 12:59:32;;;;;;;16.33;14.60;;;23.30;25.40;;;;;;5125966;28;20042;-70
2021/03/31 13:02:23;;;;;;;17.80;14.55;;;23.20;24.80;;;;;;5127873;28;20806;-70
2021/03/31 13:05:15;;;;;;;16.67;14.20;;;23.30;25.40;;;;;;5124266;28;20051;-70
2021/03/31 13:07:47;;;;;;;16.27;14.57;;;23.30;25.80;;;;;;5121131;28;20503;-71
2021/03/31 13:10:40;;;;;;;16.38;14.70;;;23.30;25.40;;;;;;5122378;28;20043;-70
2021/03/31 13:16:36;;;;;;;15.85;14.30;;;23.30;26.10;;;;;;5125346;28;20046;-70
2021/03/31 13:22:33;;;;;;;16.05;14.57;;;23.50;25.90;;;;;;5122476;28;20423;-71
2021/03/31 13:25:20;;;;;;;16.58;14.93;;;23.50;25.80;;;;;;5156123;28;20043;-72
2021/03/31 13:30:37;;;;;;;15.23;13.75;;;23.70;25.60;;;;;;5121349;28;20464;-70
2021/03/31 13:33:15;;;;;;;15.55;14.05;;;23.70;25.50;;;;;;5128080;28;20687;-71
2021/03/31 13:38:34;;;;;;;15.77;13.93;;;23.80;25.50;;;;;;5123291;28;20069;-71
2021/03/31 13:41:06;;;;;;;18.00;14.45;;;23.80;25.40;;;;;;5124002;28;20053;-70
2021/03/31 13:43:37;;;;;;;16.38;14.82;;;23.90;25.80;;;;;;5125915;28;20549;-71
2021/03/31 13:46:09;;;;;;;16.50;15.10;;;24.00;25.00;;;;;;5123463;28;20639;-71
2021/03/31 13:51:55;;;;;;;17.60;15.85;;;24.00;25.20;;;;;;5119777;28;20051;-71
2021/03/31 13:54:39;;;;;;;17.05;15.23;;;24.10;25.10;;;;;;5124231;28;20409;-72
2021/03/31 13:57:35;;;;;;;16.42;14.80;;;24.10;25.80;;;;;;5133782;28;20082;-71
2021/03/31 14:00:09;;;;;;;16.48;14.80;;;24.20;25.80;;;;;;5134897;28;20085;-70
2021/03/31 14:02:48;;;;;;;16.02;14.40;;;24.30;25.40;;;;;;5121087;28;20050;-73
2021/03/31 14:05:21;;;;;;;15.75;14.32;;;24.30;24.60;;;;;;5121216;28;20054;-71
2021/03/31 14:07:53;;;;;;;18.05;14.73;;;24.40;24.50;;;;;;5122400;28;20117;-71